sensor_id;sensor_type;location;lat;lon;timestamp;P1;durP1;ratioP1;P2;durP2;ratioP2
36691;SDS011;22678;52.052;4.242;2023-03-01T00:01:14;9.87;;;4.90;;
36691;SDS011;22678;52.052;4.242;2023-03-01T00:03:42;11.00;;;6.57;;
36691;SDS011;22678;52.052;4.242;2023-03-01T00:06:07;8.57;;;5.50;;
36691;SDS011;22678;52.052;4.242;2023-03-01T00:08:33;10.70;;;5.97;;
36691;SDS011;22678;52.052;4.242;2023-03-01T00:11:00;8.80;;;5.50;;
36691;SDS011;22678;52.052;4.242;2023-03-01T00:13:29;11.27;;;5.70;;
36691;SDS011;22678;52.052;4.242;2023-03-01T00:15:54;9.37;;;6.13;;
36691;SDS011;22678;52.052;4.242;2023-03-01T00:18:19;11.10;;;6.27;;
36691;SDS011;22678;52.052;4.242;2023-03-01T00:20:51;10.33;;;5.60;;
36691;SDS011;22678;52.052;4.242;2023-03-01T00:23:18;9.90;;;5.17;;
36691;SDS011;22678;52.052;4.242;2023-03-01T00:25:44;13.80;;;6.07;;
36691;SDS011;22678;52.052;4.242;2023-03-01T00:28:09;13.80;;;5.80;;
36691;SDS011;22678;52.052;4.242;2023-03-01T00:30:34;10.83;;;5.53;;
36691;SDS011;22678;52.052;4.242;2023-03-01T00:33:00;11.83;;;5.33;;
36691;SDS011;22678;52.052;4.242;2023-03-01T00:35:25;9.70;;;5.33;;
36691;SDS011;22678;52.052;4.242;2023-03-01T00:37:50;8.57;;;6.47;;
36691;SDS011;22678;52.052;4.242;2023-03-01T00:40:22;12.20;;;6.00;;
36691;SDS011;22678;52.052;4.242;2023-03-01T00:42:58;8.43;;;5.00;;
36691;SDS011;22678;52.052;4.242;2023-03-01T00:45:23;19.60;;;7.57;;
36691;SDS011;22678;52.052;4.242;2023-03-01T00:47:50;12.93;;;6.20;;
36691;SDS011;22678;52.052;4.242;2023-03-01T00:50:15;12.13;;;5.93;;
36691;SDS011;22678;52.052;4.242;2023-03-01T00:52:41;15.83;;;7.50;;
36691;SDS011;22678;52.052;4.242;2023-03-01T00:55:07;14.37;;;7.17;;
36691;SDS011;22678;52.052;4.242;2023-03-01T00:57:32;13.33;;;7.40;;
36691;SDS011;22678;52.052;4.242;2023-03-01T00:59:58;14.60;;;7.43;;
36691;SDS011;22678;52.052;4.242;2023-03-01T01:02:24;13.17;;;6.40;;
36691;SDS011;22678;52.052;4.242;2023-03-01T01:04:50;11.47;;;6.93;;
36691;SDS011;22678;52.052;4.242;2023-03-01T01:07:16;19.53;;;7.90;;
36691;SDS011;22678;52.052;4.242;2023-03-01T01:09:41;19.00;;;8.30;;
36691;SDS011;22678;52.052;4.242;2023-03-01T01:12:07;17.47;;;8.27;;
36691;SDS011;22678;52.052;4.242;2023-03-01T01:14:32;12.47;;;7.10;;
36691;SDS011;22678;52.052;4.242;2023-03-01T01:16:58;14.67;;;7.53;;
36691;SDS011;22678;52.052;4.242;2023-03-01T01:19:23;15.10;;;6.87;;
36691;SDS011;22678;52.052;4.242;2023-03-01T01:21:50;13.03;;;7.67;;
36691;SDS011;22678;52.052;4.242;2023-03-01T01:24:16;13.10;;;7.90;;
36691;SDS011;22678;52.052;4.242;2023-03-01T01:26:42;19.30;;;8.90;;
36691;SDS011;22678;52.052;4.242;2023-03-01T01:29:08;14.70;;;8.13;;
36691;SDS011;22678;52.052;4.242;2023-03-01T01:31:35;15.20;;;7.70;;
36691;SDS011;22678;52.052;4.242;2023-03-01T01:34:02;17.60;;;9.23;;
36691;SDS011;22678;52.052;4.242;2023-03-01T01:36:29;17.20;;;9.03;;
36691;SDS011;22678;52.052;4.242;2023-03-01T01:38:55;19.83;;;11.27;;
36691;SDS011;22678;52.052;4.242;2023-03-01T01:41:20;20.03;;;9.73;;
36691;SDS011;22678;52.052;4.242;2023-03-01T01:43:47;18.23;;;9.57;;
36691;SDS011;22678;52.052;4.242;2023-03-01T01:46:26;16.73;;;9.37;;
36691;SDS011;22678;52.052;4.242;2023-03-01T01:48:57;21.20;;;10.87;;
36691;SDS011;22678;52.052;4.242;2023-03-01T01:51:27;21.13;;;11.87;;
36691;SDS011;22678;52.052;4.242;2023-03-01T01:54:03;20.23;;;10.23;;
36691;SDS011;22678;52.052;4.242;2023-03-01T01:56:33;22.00;;;10.87;;
36691;SDS011;22678;52.052;4.242;2023-03-01T01:58:59;18.90;;;9.90;;
36691;SDS011;22678;52.052;4.242;2023-03-01T02:01:24;21.23;;;11.27;;
36691;SDS011;22678;52.052;4.242;2023-03-01T02:03:50;21.77;;;11.13;;
36691;SDS011;22678;52.052;4.242;2023-03-01T02:06:26;21.20;;;9.70;;
36691;SDS011;22678;52.052;4.242;2023-03-01T02:08:57;16.73;;;10.57;;
36691;SDS011;22678;52.052;4.242;2023-03-01T02:11:25;21.10;;;11.17;;
36691;SDS011;22678;52.052;4.242;2023-03-01T02:13:54;16.37;;;9.87;;
36691;SDS011;22678;52.052;4.242;2023-03-01T02:16:20;20.83;;;11.33;;
36691;SDS011;22678;52.052;4.242;2023-03-01T02:18:45;17.60;;;9.50;;
36691;SDS011;22678;52.052;4.242;2023-03-01T02:24:05;17.97;;;9.07;;
36691;SDS011;22678;52.052;4.242;2023-03-01T02:26:45;19.43;;;9.53;;
36691;SDS011;22678;52.052;4.242;2023-03-01T02:29:15;22.20;;;11.23;;
36691;SDS011;22678;52.052;4.242;2023-03-01T02:31:40;19.80;;;10.30;;
36691;SDS011;22678;52.052;4.242;2023-03-01T02:34:14;19.73;;;9.93;;
36691;SDS011;22678;52.052;4.242;2023-03-01T02:36:46;18.03;;;9.93;;
36691;SDS011;22678;52.052;4.242;2023-03-01T02:39:17;20.80;;;10.93;;
36691;SDS011;22678;52.052;4.242;2023-03-01T02:41:50;22.13;;;10.50;;
36691;SDS011;22678;52.052;4.242;2023-03-01T02:44:17;22.37;;;10.87;;
36691;SDS011;22678;52.052;4.242;2023-03-01T02:46:44;15.80;;;8.87;;
36691;SDS011;22678;52.052;4.242;2023-03-01T02:49:21;19.53;;;10.30;;
36691;SDS011;22678;52.052;4.242;2023-03-01T02:54:52;16.47;;;10.20;;
36691;SDS011;22678;52.052;4.242;2023-03-01T02:57:19;19.02;;;10.32;;
36691;SDS011;22678;52.052;4.242;2023-03-01T02:59:46;17.20;;;8.77;;
36691;SDS011;22678;52.052;4.242;2023-03-01T03:02:19;16.43;;;9.67;;
36691;SDS011;22678;52.052;4.242;2023-03-01T03:04:45;19.50;;;9.63;;
36691;SDS011;22678;52.052;4.242;2023-03-01T03:07:11;17.83;;;10.57;;
36691;SDS011;22678;52.052;4.242;2023-03-01T03:09:37;14.93;;;9.90;;
36691;SDS011;22678;52.052;4.242;2023-03-01T03:12:02;20.27;;;10.27;;
36691;SDS011;22678;52.052;4.242;2023-03-01T03:14:27;19.57;;;12.00;;
36691;SDS011;22678;52.052;4.242;2023-03-01T03:16:53;17.93;;;9.67;;
36691;SDS011;22678;52.052;4.242;2023-03-01T03:19:18;16.47;;;9.07;;
36691;SDS011;22678;52.052;4.242;2023-03-01T03:21:44;22.43;;;11.10;;
36691;SDS011;22678;52.052;4.242;2023-03-01T03:24:10;19.07;;;10.53;;
36691;SDS011;22678;52.052;4.242;2023-03-01T03:26:36;17.63;;;8.53;;
36691;SDS011;22678;52.052;4.242;2023-03-01T03:29:01;17.60;;;9.70;;
36691;SDS011;22678;52.052;4.242;2023-03-01T03:31:27;22.93;;;10.50;;
36691;SDS011;22678;52.052;4.242;2023-03-01T03:33:53;19.57;;;9.97;;
36691;SDS011;22678;52.052;4.242;2023-03-01T03:36:19;20.23;;;9.27;;
36691;SDS011;22678;52.052;4.242;2023-03-01T03:38:48;17.70;;;10.20;;
36691;SDS011;22678;52.052;4.242;2023-03-01T03:41:13;18.60;;;10.30;;
36691;SDS011;22678;52.052;4.242;2023-03-01T03:43:40;22.87;;;13.00;;
36691;SDS011;22678;52.052;4.242;2023-03-01T03:46:07;17.67;;;8.63;;
36691;SDS011;22678;52.052;4.242;2023-03-01T03:48:41;18.60;;;9.30;;
36691;SDS011;22678;52.052;4.242;2023-03-01T03:51:15;19.40;;;11.23;;
36691;SDS011;22678;52.052;4.242;2023-03-01T03:53:42;28.00;;;11.40;;
36691;SDS011;22678;52.052;4.242;2023-03-01T03:56:08;20.23;;;10.30;;
36691;SDS011;22678;52.052;4.242;2023-03-01T03:58:34;17.80;;;9.87;;
36691;SDS011;22678;52.052;4.242;2023-03-01T04:00:59;22.20;;;10.93;;
36691;SDS011;22678;52.052;4.242;2023-03-01T04:03:26;20.53;;;10.57;;
36691;SDS011;22678;52.052;4.242;2023-03-01T04:05:52;21.03;;;10.50;;
36691;SDS011;22678;52.052;4.242;2023-03-01T04:08:18;22.97;;;10.50;;
36691;SDS011;22678;52.052;4.242;2023-03-01T04:10:46;20.07;;;9.80;;
36691;SDS011;22678;52.052;4.242;2023-03-01T04:13:14;27.27;;;11.20;;
36691;SDS011;22678;52.052;4.242;2023-03-01T04:15:42;17.93;;;10.37;;
36691;SDS011;22678;52.052;4.242;2023-03-01T04:18:12;23.57;;;10.50;;
36691;SDS011;22678;52.052;4.242;2023-03-01T04:20:38;20.27;;;9.93;;
36691;SDS011;22678;52.052;4.242;2023-03-01T04:23:09;21.27;;;10.23;;
36691;SDS011;22678;52.052;4.242;2023-03-01T04:25:48;21.30;;;9.50;;
36691;SDS011;22678;52.052;4.242;2023-03-01T04:28:19;16.17;;;10.00;;
36691;SDS011;22678;52.052;4.242;2023-03-01T04:31:09;22.63;;;10.93;;
36691;SDS011;22678;52.052;4.242;2023-03-01T04:33:41;20.13;;;9.93;;
36691;SDS011;22678;52.052;4.242;2023-03-01T04:36:08;23.17;;;11.13;;
36691;SDS011;22678;52.052;4.242;2023-03-01T04:38:35;23.80;;;11.07;;
36691;SDS011;22678;52.052;4.242;2023-03-01T04:41:02;24.00;;;9.43;;
36691;SDS011;22678;52.052;4.242;2023-03-01T04:43:31;45.73;;;18.10;;
36691;SDS011;22678;52.052;4.242;2023-03-01T04:46:03;52.87;;;23.00;;
36691;SDS011;22678;52.052;4.242;2023-03-01T04:48:31;45.58;;;20.63;;
36691;SDS011;22678;52.052;4.242;2023-03-01T04:50:57;43.47;;;16.73;;
36691;SDS011;22678;52.052;4.242;2023-03-01T04:53:23;32.80;;;15.27;;
36691;SDS011;22678;52.052;4.242;2023-03-01T04:55:49;30.43;;;16.87;;
36691;SDS011;22678;52.052;4.242;2023-03-01T04:58:15;24.63;;;14.30;;
36691;SDS011;22678;52.052;4.242;2023-03-01T05:00:41;29.17;;;14.33;;
36691;SDS011;22678;52.052;4.242;2023-03-01T05:03:06;26.10;;;13.90;;
36691;SDS011;22678;52.052;4.242;2023-03-01T05:05:34;29.87;;;13.87;;
36691;SDS011;22678;52.052;4.242;2023-03-01T05:08:02;27.57;;;13.77;;
36691;SDS011;22678;52.052;4.242;2023-03-01T05:10:30;20.30;;;11.67;;
36691;SDS011;22678;52.052;4.242;2023-03-01T05:12:57;22.40;;;12.53;;
36691;SDS011;22678;52.052;4.242;2023-03-01T05:15:24;49.70;;;24.33;;
36691;SDS011;22678;52.052;4.242;2023-03-01T05:17:51;35.77;;;16.13;;
36691;SDS011;22678;52.052;4.242;2023-03-01T05:20:17;25.20;;;13.53;;
36691;SDS011;22678;52.052;4.242;2023-03-01T05:22:47;25.00;;;12.27;;
36691;SDS011;22678;52.052;4.242;2023-03-01T05:25:13;26.90;;;14.13;;
36691;SDS011;22678;52.052;4.242;2023-03-01T05:27:39;23.40;;;12.37;;
36691;SDS011;22678;52.052;4.242;2023-03-01T05:30:04;26.93;;;13.27;;
36691;SDS011;22678;52.052;4.242;2023-03-01T05:32:41;28.87;;;13.30;;
36691;SDS011;22678;52.052;4.242;2023-03-01T05:35:15;19.83;;;11.70;;
36691;SDS011;22678;52.052;4.242;2023-03-01T05:37:42;23.87;;;12.70;;
36691;SDS011;22678;52.052;4.242;2023-03-01T05:40:12;20.57;;;11.83;;
36691;SDS011;22678;52.052;4.242;2023-03-01T05:42:43;22.00;;;13.27;;
36691;SDS011;22678;52.052;4.242;2023-03-01T05:45:22;21.60;;;13.17;;
36691;SDS011;22678;52.052;4.242;2023-03-01T05:47:49;26.20;;;12.70;;
36691;SDS011;22678;52.052;4.242;2023-03-01T05:50:20;22.50;;;13.23;;
36691;SDS011;22678;52.052;4.242;2023-03-01T05:52:51;19.80;;;10.67;;
36691;SDS011;22678;52.052;4.242;2023-03-01T05:55:21;27.00;;;13.63;;
36691;SDS011;22678;52.052;4.242;2023-03-01T05:57:47;25.60;;;13.57;;
36691;SDS011;22678;52.052;4.242;2023-03-01T06:00:13;24.00;;;11.63;;
36691;SDS011;22678;52.052;4.242;2023-03-01T06:02:40;24.73;;;13.27;;
36691;SDS011;22678;52.052;4.242;2023-03-01T06:05:07;25.43;;;14.13;;
36691;SDS011;22678;52.052;4.242;2023-03-01T06:07:33;24.63;;;12.60;;
36691;SDS011;22678;52.052;4.242;2023-03-01T06:09:58;25.50;;;13.60;;
36691;SDS011;22678;52.052;4.242;2023-03-01T06:12:24;23.47;;;12.30;;
36691;SDS011;22678;52.052;4.242;2023-03-01T06:14:49;25.33;;;11.93;;
36691;SDS011;22678;52.052;4.242;2023-03-01T06:17:14;26.33;;;12.03;;
36691;SDS011;22678;52.052;4.242;2023-03-01T06:19:40;23.97;;;11.60;;
36691;SDS011;22678;52.052;4.242;2023-03-01T06:22:05;27.90;;;13.73;;
36691;SDS011;22678;52.052;4.242;2023-03-01T06:24:30;26.30;;;11.73;;
36691;SDS011;22678;52.052;4.242;2023-03-01T06:26:56;22.43;;;12.47;;
36691;SDS011;22678;52.052;4.242;2023-03-01T06:29:21;27.67;;;12.87;;
36691;SDS011;22678;52.052;4.242;2023-03-01T06:31:47;21.20;;;12.10;;
36691;SDS011;22678;52.052;4.242;2023-03-01T06:34:14;23.63;;;13.37;;
36691;SDS011;22678;52.052;4.242;2023-03-01T06:36:39;22.63;;;12.97;;
36691;SDS011;22678;52.052;4.242;2023-03-01T06:39:05;23.97;;;11.93;;
36691;SDS011;22678;52.052;4.242;2023-03-01T06:41:31;26.83;;;12.13;;
36691;SDS011;22678;52.052;4.242;2023-03-01T06:43:57;27.77;;;13.77;;
36691;SDS011;22678;52.052;4.242;2023-03-01T06:46:23;27.47;;;13.03;;
36691;SDS011;22678;52.052;4.242;2023-03-01T06:48:49;31.80;;;14.93;;
36691;SDS011;22678;52.052;4.242;2023-03-01T06:51:14;22.70;;;13.10;;
36691;SDS011;22678;52.052;4.242;2023-03-01T06:53:39;24.97;;;11.70;;
36691;SDS011;22678;52.052;4.242;2023-03-01T06:56:05;29.10;;;12.77;;
36691;SDS011;22678;52.052;4.242;2023-03-01T06:58:30;23.53;;;10.73;;
36691;SDS011;22678;52.052;4.242;2023-03-01T07:00:55;25.07;;;13.20;;
36691;SDS011;22678;52.052;4.242;2023-03-01T07:03:21;26.07;;;12.77;;
36691;SDS011;22678;52.052;4.242;2023-03-01T07:05:50;25.90;;;12.13;;
36691;SDS011;22678;52.052;4.242;2023-03-01T07:08:19;27.02;;;13.90;;
36691;SDS011;22678;52.052;4.242;2023-03-01T07:10:45;28.80;;;13.70;;
36691;SDS011;22678;52.052;4.242;2023-03-01T07:13:10;25.03;;;13.00;;
36691;SDS011;22678;52.052;4.242;2023-03-01T07:15:35;27.47;;;13.27;;
36691;SDS011;22678;52.052;4.242;2023-03-01T07:18:01;25.90;;;13.23;;
36691;SDS011;22678;52.052;4.242;2023-03-01T07:20:27;26.50;;;12.83;;
36691;SDS011;22678;52.052;4.242;2023-03-01T07:22:52;30.27;;;14.93;;
36691;SDS011;22678;52.052;4.242;2023-03-01T07:25:19;21.17;;;11.67;;
36691;SDS011;22678;52.052;4.242;2023-03-01T07:27:48;27.70;;;13.63;;
36691;SDS011;22678;52.052;4.242;2023-03-01T07:30:14;24.23;;;13.47;;
36691;SDS011;22678;52.052;4.242;2023-03-01T07:32:39;27.30;;;13.60;;
36691;SDS011;22678;52.052;4.242;2023-03-01T07:35:05;26.33;;;13.20;;
36691;SDS011;22678;52.052;4.242;2023-03-01T07:37:31;26.90;;;13.73;;
36691;SDS011;22678;52.052;4.242;2023-03-01T07:39:56;31.70;;;15.77;;
36691;SDS011;22678;52.052;4.242;2023-03-01T07:42:22;30.27;;;12.80;;
36691;SDS011;22678;52.052;4.242;2023-03-01T07:44:48;23.40;;;12.83;;
36691;SDS011;22678;52.052;4.242;2023-03-01T07:47:13;26.60;;;14.47;;
36691;SDS011;22678;52.052;4.242;2023-03-01T07:49:38;27.23;;;13.30;;
36691;SDS011;22678;52.052;4.242;2023-03-01T07:52:04;27.37;;;12.17;;
36691;SDS011;22678;52.052;4.242;2023-03-01T07:54:29;23.40;;;12.80;;
36691;SDS011;22678;52.052;4.242;2023-03-01T07:56:55;40.20;;;15.47;;
36691;SDS011;22678;52.052;4.242;2023-03-01T07:59:22;27.57;;;11.10;;
36691;SDS011;22678;52.052;4.242;2023-03-01T08:01:53;23.88;;;10.68;;
36691;SDS011;22678;52.052;4.242;2023-03-01T08:04:18;18.93;;;10.30;;
36691;SDS011;22678;52.052;4.242;2023-03-01T08:06:44;20.50;;;8.57;;
36691;SDS011;22678;52.052;4.242;2023-03-01T08:09:09;20.03;;;9.43;;
36691;SDS011;22678;52.052;4.242;2023-03-01T08:11:34;15.67;;;7.93;;
36691;SDS011;22678;52.052;4.242;2023-03-01T08:14:00;18.10;;;7.53;;
36691;SDS011;22678;52.052;4.242;2023-03-01T08:16:25;12.43;;;6.10;;
36691;SDS011;22678;52.052;4.242;2023-03-01T08:18:50;12.93;;;6.77;;
36691;SDS011;22678;52.052;4.242;2023-03-01T08:21:16;13.87;;;7.33;;
36691;SDS011;22678;52.052;4.242;2023-03-01T08:23:43;12.43;;;5.87;;
36691;SDS011;22678;52.052;4.242;2023-03-01T08:26:12;16.77;;;6.60;;
36691;SDS011;22678;52.052;4.242;2023-03-01T08:28:39;13.70;;;6.53;;
36691;SDS011;22678;52.052;4.242;2023-03-01T08:31:19;9.70;;;5.33;;
36691;SDS011;22678;52.052;4.242;2023-03-01T08:33:51;13.60;;;6.00;;
36691;SDS011;22678;52.052;4.242;2023-03-01T08:36:21;14.47;;;8.20;;
36691;SDS011;22678;52.052;4.242;2023-03-01T08:38:48;12.53;;;7.20;;
36691;SDS011;22678;52.052;4.242;2023-03-01T08:41:14;12.77;;;7.77;;
36691;SDS011;22678;52.052;4.242;2023-03-01T08:43:39;12.10;;;6.47;;
36691;SDS011;22678;52.052;4.242;2023-03-01T08:46:05;14.27;;;7.73;;
36691;SDS011;22678;52.052;4.242;2023-03-01T08:48:30;16.97;;;7.57;;
36691;SDS011;22678;52.052;4.242;2023-03-01T08:50:55;14.53;;;7.97;;
36691;SDS011;22678;52.052;4.242;2023-03-01T08:53:21;19.60;;;9.63;;
36691;SDS011;22678;52.052;4.242;2023-03-01T08:55:46;21.97;;;10.07;;
36691;SDS011;22678;52.052;4.242;2023-03-01T08:58:12;18.47;;;9.00;;
36691;SDS011;22678;52.052;4.242;2023-03-01T09:00:37;20.43;;;10.90;;
36691;SDS011;22678;52.052;4.242;2023-03-01T09:03:03;18.50;;;10.57;;
36691;SDS011;22678;52.052;4.242;2023-03-01T09:05:31;17.77;;;10.23;;
36691;SDS011;22678;52.052;4.242;2023-03-01T09:07:57;17.67;;;10.27;;
36691;SDS011;22678;52.052;4.242;2023-03-01T09:10:22;18.93;;;12.93;;
36691;SDS011;22678;52.052;4.242;2023-03-01T09:12:47;19.50;;;11.70;;
36691;SDS011;22678;52.052;4.242;2023-03-01T09:15:13;20.80;;;12.20;;
36691;SDS011;22678;52.052;4.242;2023-03-01T09:17:38;17.53;;;10.40;;
36691;SDS011;22678;52.052;4.242;2023-03-01T09:20:03;17.93;;;10.13;;
36691;SDS011;22678;52.052;4.242;2023-03-01T09:22:30;23.47;;;12.13;;
36691;SDS011;22678;52.052;4.242;2023-03-01T09:24:57;23.60;;;12.27;;
36691;SDS011;22678;52.052;4.242;2023-03-01T09:27:24;19.47;;;10.73;;
36691;SDS011;22678;52.052;4.242;2023-03-01T09:29:51;21.13;;;10.37;;
36691;SDS011;22678;52.052;4.242;2023-03-01T09:32:16;17.93;;;9.93;;
36691;SDS011;22678;52.052;4.242;2023-03-01T09:34:41;25.13;;;12.73;;
36691;SDS011;22678;52.052;4.242;2023-03-01T09:37:26;19.43;;;12.20;;
36691;SDS011;22678;52.052;4.242;2023-03-01T09:39:51;21.40;;;12.37;;
36691;SDS011;22678;52.052;4.242;2023-03-01T09:42:17;19.03;;;11.10;;
36691;SDS011;22678;52.052;4.242;2023-03-01T09:47:16;19.10;;;10.52;;
36691;SDS011;22678;52.052;4.242;2023-03-01T09:49:55;23.23;;;11.03;;
36691;SDS011;22678;52.052;4.242;2023-03-01T09:58:41;21.40;;;10.10;;
36691;SDS011;22678;52.052;4.242;2023-03-01T10:01:02;17.20;;;8.73;;
36691;SDS011;22678;52.052;4.242;2023-03-01T10:03:40;14.17;;;7.40;;
36691;SDS011;22678;52.052;4.242;2023-03-01T10:08:58;12.43;;;8.03;;
36691;SDS011;22678;52.052;4.242;2023-03-01T10:11:31;10.13;;;5.87;;
36691;SDS011;22678;52.052;4.242;2023-03-01T10:19:23;12.63;;;6.63;;
36691;SDS011;22678;52.052;4.242;2023-03-01T10:21:57;13.47;;;7.00;;
36691;SDS011;22678;52.052;4.242;2023-03-01T10:24:27;12.60;;;4.77;;
36691;SDS011;22678;52.052;4.242;2023-03-01T10:27:01;12.20;;;5.27;;
36691;SDS011;22678;52.052;4.242;2023-03-01T10:32:19;8.77;;;5.27;;
36691;SDS011;22678;52.052;4.242;2023-03-01T10:34:46;8.47;;;4.60;;
36691;SDS011;22678;52.052;4.242;2023-03-01T10:42:28;8.97;;;3.60;;
36691;SDS011;22678;52.052;4.242;2023-03-01T10:44:58;9.37;;;3.93;;
36691;SDS011;22678;52.052;4.242;2023-03-01T10:50:09;9.07;;;3.07;;
36691;SDS011;22678;52.052;4.242;2023-03-01T10:52:54;7.43;;;4.50;;
36691;SDS011;22678;52.052;4.242;2023-03-01T10:55:24;10.40;;;4.47;;
36691;SDS011;22678;52.052;4.242;2023-03-01T10:58:05;9.40;;;4.33;;
36691;SDS011;22678;52.052;4.242;2023-03-01T11:00:31;8.63;;;5.60;;
36691;SDS011;22678;52.052;4.242;2023-03-01T11:05:23;9.13;;;5.10;;
36691;SDS011;22678;52.052;4.242;2023-03-01T11:07:53;9.83;;;5.03;;
36691;SDS011;22678;52.052;4.242;2023-03-01T11:10:31;9.00;;;5.37;;
36691;SDS011;22678;52.052;4.242;2023-03-01T11:16:06;13.33;;;5.20;;
36691;SDS011;22678;52.052;4.242;2023-03-01T11:18:35;8.33;;;4.07;;
36691;SDS011;22678;52.052;4.242;2023-03-01T11:21:00;7.93;;;3.93;;
36691;SDS011;22678;52.052;4.242;2023-03-01T11:23:27;7.63;;;4.53;;
36691;SDS011;22678;52.052;4.242;2023-03-01T11:25:59;9.37;;;5.23;;
36691;SDS011;22678;52.052;4.242;2023-03-01T11:28:28;9.03;;;4.17;;
36691;SDS011;22678;52.052;4.242;2023-03-01T11:31:07;8.23;;;5.13;;
36691;SDS011;22678;52.052;4.242;2023-03-01T11:33:48;7.97;;;4.37;;
36691;SDS011;22678;52.052;4.242;2023-03-01T11:42:06;10.87;;;4.80;;
36691;SDS011;22678;52.052;4.242;2023-03-01T11:44:38;9.82;;;5.25;;
36691;SDS011;22678;52.052;4.242;2023-03-01T11:47:11;10.17;;;4.53;;
36691;SDS011;22678;52.052;4.242;2023-03-01T11:52:39;7.40;;;4.13;;
36691;SDS011;22678;52.052;4.242;2023-03-01T12:12:30;8.50;;;4.07;;
36691;SDS011;22678;52.052;4.242;2023-03-01T12:26:25;19.53;;;7.43;;
36691;SDS011;22678;52.052;4.242;2023-03-01T12:36:54;12.00;;;6.03;;
36691;SDS011;22678;52.052;4.242;2023-03-01T12:43:26;10.03;;;5.10;;
36691;SDS011;22678;52.052;4.242;2023-03-01T12:46:32;9.10;;;5.27;;
36691;SDS011;22678;52.052;4.242;2023-03-01T12:51:24;16.27;;;7.83;;
36691;SDS011;22678;52.052;4.242;2023-03-01T12:53:55;8.07;;;4.90;;
36691;SDS011;22678;52.052;4.242;2023-03-01T12:56:23;9.67;;;5.73;;
36691;SDS011;22678;52.052;4.242;2023-03-01T12:58:51;7.07;;;3.57;;
36691;SDS011;22678;52.052;4.242;2023-03-01T13:17:53;15.27;;;6.23;;
36691;SDS011;22678;52.052;4.242;2023-03-01T13:21:05;11.10;;;5.53;;
36691;SDS011;22678;52.052;4.242;2023-03-01T13:30:57;14.27;;;7.73;;
36691;SDS011;22678;52.052;4.242;2023-03-01T13:35:52;10.38;;;6.53;;
36691;SDS011;22678;52.052;4.242;2023-03-01T13:46:53;13.25;;;7.07;;
36691;SDS011;22678;52.052;4.242;2023-03-01T13:49:23;16.63;;;7.47;;
36691;SDS011;22678;52.052;4.242;2023-03-01T13:51:53;11.15;;;6.38;;
36691;SDS011;22678;52.052;4.242;2023-03-01T13:54:26;10.90;;;7.45;;
36691;SDS011;22678;52.052;4.242;2023-03-01T13:56:55;15.70;;;8.85;;
36691;SDS011;22678;52.052;4.242;2023-03-01T13:59:24;13.13;;;6.65;;
36691;SDS011;22678;52.052;4.242;2023-03-01T14:02:01;12.73;;;7.15;;
36691;SDS011;22678;52.052;4.242;2023-03-01T14:04:27;10.63;;;6.68;;
36691;SDS011;22678;52.052;4.242;2023-03-01T14:07:09;11.35;;;6.25;;
36691;SDS011;22678;52.052;4.242;2023-03-01T14:09:34;12.80;;;6.43;;
36691;SDS011;22678;52.052;4.242;2023-03-01T14:12:16;11.45;;;6.05;;
36691;SDS011;22678;52.052;4.242;2023-03-01T14:17:58;16.03;;;7.63;;
36691;SDS011;22678;52.052;4.242;2023-03-01T14:20:33;12.27;;;6.25;;
36691;SDS011;22678;52.052;4.242;2023-03-01T14:23:09;8.70;;;5.47;;
36691;SDS011;22678;52.052;4.242;2023-03-01T14:25:38;10.57;;;5.68;;
36691;SDS011;22678;52.052;4.242;2023-03-01T14:28:15;10.68;;;5.72;;
36691;SDS011;22678;52.052;4.242;2023-03-01T14:30:43;13.82;;;6.75;;
36691;SDS011;22678;52.052;4.242;2023-03-01T14:33:25;8.82;;;5.80;;
36691;SDS011;22678;52.052;4.242;2023-03-01T14:36:05;14.15;;;6.65;;
36691;SDS011;22678;52.052;4.242;2023-03-01T14:38:35;11.25;;;5.75;;
36691;SDS011;22678;52.052;4.242;2023-03-01T14:41:24;8.98;;;4.90;;
36691;SDS011;22678;52.052;4.242;2023-03-01T14:43:55;9.23;;;3.92;;
36691;SDS011;22678;52.052;4.242;2023-03-01T14:46:26;11.30;;;4.97;;
36691;SDS011;22678;52.052;4.242;2023-03-01T14:49:06;12.33;;;4.43;;
36691;SDS011;22678;52.052;4.242;2023-03-01T14:51:53;8.52;;;4.65;;
36691;SDS011;22678;52.052;4.242;2023-03-01T14:56:51;9.43;;;4.43;;
36691;SDS011;22678;52.052;4.242;2023-03-01T14:59:21;7.85;;;4.30;;
36691;SDS011;22678;52.052;4.242;2023-03-01T15:01:49;9.93;;;5.73;;
36691;SDS011;22678;52.052;4.242;2023-03-01T15:04:16;9.07;;;5.63;;
36691;SDS011;22678;52.052;4.242;2023-03-01T15:06:42;9.38;;;4.78;;
36691;SDS011;22678;52.052;4.242;2023-03-01T15:09:11;8.93;;;4.72;;
36691;SDS011;22678;52.052;4.242;2023-03-01T15:11:40;9.43;;;5.45;;
36691;SDS011;22678;52.052;4.242;2023-03-01T15:17:15;8.85;;;5.00;;
36691;SDS011;22678;52.052;4.242;2023-03-01T15:20:01;8.23;;;5.13;;
36691;SDS011;22678;52.052;4.242;2023-03-01T15:22:30;8.90;;;5.07;;
36691;SDS011;22678;52.052;4.242;2023-03-01T15:24:55;7.60;;;3.93;;
36691;SDS011;22678;52.052;4.242;2023-03-01T15:27:24;9.77;;;4.45;;
36691;SDS011;22678;52.052;4.242;2023-03-01T15:29:54;9.50;;;4.97;;
36691;SDS011;22678;52.052;4.242;2023-03-01T15:32:33;8.48;;;4.07;;
36691;SDS011;22678;52.052;4.242;2023-03-01T15:35:32;10.67;;;4.37;;
36691;SDS011;22678;52.052;4.242;2023-03-01T15:37:59;8.27;;;4.67;;
36691;SDS011;22678;52.052;4.242;2023-03-01T15:40:28;8.73;;;4.67;;
36691;SDS011;22678;52.052;4.242;2023-03-01T15:45:25;9.07;;;3.90;;
36691;SDS011;22678;52.052;4.242;2023-03-01T15:47:56;9.17;;;5.83;;
36691;SDS011;22678;52.052;4.242;2023-03-01T15:50:28;8.63;;;4.77;;
36691;SDS011;22678;52.052;4.242;2023-03-01T15:52:58;10.30;;;4.67;;
36691;SDS011;22678;52.052;4.242;2023-03-01T15:55:25;8.97;;;4.60;;
36691;SDS011;22678;52.052;4.242;2023-03-01T15:57:58;9.53;;;4.97;;
36691;SDS011;22678;52.052;4.242;2023-03-01T16:00:26;11.87;;;5.47;;
36691;SDS011;22678;52.052;4.242;2023-03-01T16:02:51;11.57;;;5.50;;
36691;SDS011;22678;52.052;4.242;2023-03-01T16:05:19;10.00;;;5.03;;
36691;SDS011;22678;52.052;4.242;2023-03-01T16:07:48;7.13;;;4.17;;
36691;SDS011;22678;52.052;4.242;2023-03-01T16:10:13;7.93;;;4.30;;
36691;SDS011;22678;52.052;4.242;2023-03-01T16:12:38;8.17;;;4.67;;
36691;SDS011;22678;52.052;4.242;2023-03-01T16:15:04;7.97;;;3.87;;
36691;SDS011;22678;52.052;4.242;2023-03-01T16:17:38;11.87;;;5.10;;
36691;SDS011;22678;52.052;4.242;2023-03-01T16:20:04;17.03;;;4.57;;
36691;SDS011;22678;52.052;4.242;2023-03-01T16:22:29;11.33;;;4.33;;
36691;SDS011;22678;52.052;4.242;2023-03-01T16:24:55;8.87;;;3.20;;
36691;SDS011;22678;52.052;4.242;2023-03-01T16:27:20;10.90;;;3.67;;
36691;SDS011;22678;52.052;4.242;2023-03-01T16:29:45;8.87;;;3.47;;
36691;SDS011;22678;52.052;4.242;2023-03-01T16:32:11;9.23;;;4.13;;
36691;SDS011;22678;52.052;4.242;2023-03-01T16:34:36;8.30;;;4.13;;
36691;SDS011;22678;52.052;4.242;2023-03-01T16:37:01;7.37;;;3.67;;
36691;SDS011;22678;52.052;4.242;2023-03-01T16:39:27;7.43;;;3.43;;
36691;SDS011;22678;52.052;4.242;2023-03-01T16:41:52;10.87;;;4.00;;
36691;SDS011;22678;52.052;4.242;2023-03-01T16:44:17;6.53;;;3.20;;
36691;SDS011;22678;52.052;4.242;2023-03-01T16:46:42;9.33;;;4.10;;
36691;SDS011;22678;52.052;4.242;2023-03-01T16:49:08;10.60;;;4.53;;
36691;SDS011;22678;52.052;4.242;2023-03-01T16:51:34;8.50;;;4.43;;
36691;SDS011;22678;52.052;4.242;2023-03-01T16:54:00;19.93;;;5.73;;
36691;SDS011;22678;52.052;4.242;2023-03-01T16:56:25;7.17;;;3.97;;